sensor_id;sensor_type;location;lat;lon;timestamp;P1;durP1;ratioP1;P2;durP2;ratioP2
9166;SDS011;4618;48.818;9.088;2024-03-25T00:01:09;4.37;;;1.77;;
9166;SDS011;4618;48.818;9.088;2024-03-25T00:03:35;3.73;;;1.87;;
9166;SDS011;4618;48.818;9.088;2024-03-25T00:06:01;5.73;;;2.03;;
9166;SDS011;4618;48.818;9.088;2024-03-25T00:08:27;2.50;;;2.27;;
9166;SDS011;4618;48.818;9.088;2024-03-25T00:10:53;3.20;;;2.20;;
9166;SDS011;4618;48.818;9.088;2024-03-25T00:13:20;3.00;;;2.10;;
9166;SDS011;4618;48.818;9.088;2024-03-25T00:15:46;3.20;;;2.07;;
9166;SDS011;4618;48.818;9.088;2024-03-25T00:18:12;4.97;;;2.30;;
9166;SDS011;4618;48.818;9.088;2024-03-25T00:20:38;4.20;;;2.53;;
9166;SDS011;4618;48.818;9.088;2024-03-25T00:23:04;4.33;;;2.43;;
9166;SDS011;4618;48.818;9.088;2024-03-25T00:25:32;3.40;;;2.30;;
9166;SDS011;4618;48.818;9.088;2024-03-25T00:27:58;4.70;;;2.43;;
9166;SDS011;4618;48.818;9.088;2024-03-25T00:30:26;3.77;;;2.30;;
9166;SDS011;4618;48.818;9.088;2024-03-25T00:32:54;5.03;;;2.33;;
9166;SDS011;4618;48.818;9.088;2024-03-25T00:35:20;4.60;;;2.60;;
9166;SDS011;4618;48.818;9.088;2024-03-25T00:37:46;4.50;;;2.30;;
9166;SDS011;4618;48.818;9.088;2024-03-25T00:40:12;6.20;;;2.20;;
9166;SDS011;4618;48.818;9.088;2024-03-25T00:42:39;6.43;;;1.93;;
9166;SDS011;4618;48.818;9.088;2024-03-25T00:45:05;2.87;;;2.40;;
9166;SDS011;4618;48.818;9.088;2024-03-25T00:52:50;3.37;;;2.13;;
9166;SDS011;4618;48.818;9.088;2024-03-25T00:55:17;4.33;;;3.00;;
9166;SDS011;4618;48.818;9.088;2024-03-25T00:57:44;5.33;;;2.67;;
9166;SDS011;4618;48.818;9.088;2024-03-25T01:00:10;5.43;;;2.53;;
9166;SDS011;4618;48.818;9.088;2024-03-25T01:02:39;4.13;;;2.30;;
9166;SDS011;4618;48.818;9.088;2024-03-25T01:05:06;8.50;;;2.40;;
9166;SDS011;4618;48.818;9.088;2024-03-25T01:07:32;7.03;;;2.90;;
9166;SDS011;4618;48.818;9.088;2024-03-25T01:09:58;5.80;;;2.50;;
9166;SDS011;4618;48.818;9.088;2024-03-25T01:12:25;3.97;;;2.50;;
9166;SDS011;4618;48.818;9.088;2024-03-25T01:14:51;3.37;;;2.33;;
9166;SDS011;4618;48.818;9.088;2024-03-25T01:17:18;6.47;;;2.80;;
9166;SDS011;4618;48.818;9.088;2024-03-25T01:19:44;4.00;;;2.50;;
9166;SDS011;4618;48.818;9.088;2024-03-25T01:22:10;3.47;;;2.10;;
9166;SDS011;4618;48.818;9.088;2024-03-25T01:24:36;4.27;;;2.43;;
9166;SDS011;4618;48.818;9.088;2024-03-25T01:27:02;6.00;;;3.00;;
9166;SDS011;4618;48.818;9.088;2024-03-25T01:29:28;4.80;;;2.80;;
9166;SDS011;4618;48.818;9.088;2024-03-25T01:31:54;5.47;;;2.87;;
9166;SDS011;4618;48.818;9.088;2024-03-25T01:34:22;7.00;;;2.77;;
9166;SDS011;4618;48.818;9.088;2024-03-25T01:36:48;8.33;;;2.50;;
9166;SDS011;4618;48.818;9.088;2024-03-25T01:39:14;4.00;;;2.67;;
9166;SDS011;4618;48.818;9.088;2024-03-25T01:41:40;7.07;;;2.93;;
9166;SDS011;4618;48.818;9.088;2024-03-25T01:44:07;5.37;;;2.90;;
9166;SDS011;4618;48.818;9.088;2024-03-25T01:46:33;6.93;;;2.70;;
9166;SDS011;4618;48.818;9.088;2024-03-25T01:48:59;5.03;;;2.70;;
9166;SDS011;4618;48.818;9.088;2024-03-25T01:51:25;8.87;;;2.93;;
9166;SDS011;4618;48.818;9.088;2024-03-25T01:53:52;5.97;;;2.80;;
9166;SDS011;4618;48.818;9.088;2024-03-25T01:56:18;4.03;;;2.70;;
9166;SDS011;4618;48.818;9.088;2024-03-25T01:58:45;5.87;;;2.70;;
9166;SDS011;4618;48.818;9.088;2024-03-25T02:01:11;6.53;;;3.07;;
9166;SDS011;4618;48.818;9.088;2024-03-25T02:03:40;5.80;;;2.70;;
9166;SDS011;4618;48.818;9.088;2024-03-25T02:06:07;4.33;;;2.57;;
9166;SDS011;4618;48.818;9.088;2024-03-25T02:08:35;5.77;;;2.80;;
9166;SDS011;4618;48.818;9.088;2024-03-25T02:11:01;5.00;;;2.60;;
9166;SDS011;4618;48.818;9.088;2024-03-25T02:13:28;5.77;;;2.63;;
9166;SDS011;4618;48.818;9.088;2024-03-25T02:15:54;7.03;;;3.10;;
9166;SDS011;4618;48.818;9.088;2024-03-25T02:18:20;7.93;;;2.53;;
9166;SDS011;4618;48.818;9.088;2024-03-25T02:20:46;3.03;;;2.40;;
9166;SDS011;4618;48.818;9.088;2024-03-25T02:23:13;5.10;;;3.00;;
9166;SDS011;4618;48.818;9.088;2024-03-25T02:25:40;6.03;;;3.07;;
9166;SDS011;4618;48.818;9.088;2024-03-25T02:28:07;7.60;;;2.97;;
9166;SDS011;4618;48.818;9.088;2024-03-25T02:30:33;3.93;;;3.00;;
9166;SDS011;4618;48.818;9.088;2024-03-25T02:33:01;5.47;;;3.07;;
9166;SDS011;4618;48.818;9.088;2024-03-25T02:35:27;6.33;;;3.07;;
9166;SDS011;4618;48.818;9.088;2024-03-25T02:37:54;3.33;;;2.50;;
9166;SDS011;4618;48.818;9.088;2024-03-25T02:40:20;4.83;;;2.73;;
9166;SDS011;4618;48.818;9.088;2024-03-25T02:42:47;5.60;;;3.30;;
9166;SDS011;4618;48.818;9.088;2024-03-25T02:45:13;4.47;;;2.77;;
9166;SDS011;4618;48.818;9.088;2024-03-25T02:47:39;6.67;;;2.83;;
9166;SDS011;4618;48.818;9.088;2024-03-25T02:50:05;7.97;;;3.47;;
9166;SDS011;4618;48.818;9.088;2024-03-25T02:52:31;8.23;;;3.90;;
9166;SDS011;4618;48.818;9.088;2024-03-25T02:55:00;7.97;;;3.20;;
9166;SDS011;4618;48.818;9.088;2024-03-25T02:57:26;4.53;;;2.93;;
9166;SDS011;4618;48.818;9.088;2024-03-25T02:59:52;5.73;;;2.90;;
9166;SDS011;4618;48.818;9.088;2024-03-25T03:02:18;6.30;;;3.20;;
9166;SDS011;4618;48.818;9.088;2024-03-25T03:04:44;6.00;;;3.27;;
9166;SDS011;4618;48.818;9.088;2024-03-25T03:07:10;6.77;;;2.93;;
9166;SDS011;4618;48.818;9.088;2024-03-25T03:09:36;8.00;;;2.77;;
9166;SDS011;4618;48.818;9.088;2024-03-25T03:12:02;6.23;;;3.13;;
9166;SDS011;4618;48.818;9.088;2024-03-25T03:14:28;6.03;;;3.30;;
9166;SDS011;4618;48.818;9.088;2024-03-25T03:16:54;5.37;;;3.30;;
9166;SDS011;4618;48.818;9.088;2024-03-25T03:19:24;5.23;;;3.03;;
9166;SDS011;4618;48.818;9.088;2024-03-25T03:21:50;5.73;;;3.07;;
9166;SDS011;4618;48.818;9.088;2024-03-25T03:24:16;4.83;;;3.03;;
9166;SDS011;4618;48.818;9.088;2024-03-25T03:26:43;6.70;;;3.30;;
9166;SDS011;4618;48.818;9.088;2024-03-25T03:29:09;4.43;;;3.60;;
9166;SDS011;4618;48.818;9.088;2024-03-25T03:31:35;7.13;;;3.30;;
9166;SDS011;4618;48.818;9.088;2024-03-25T03:34:01;5.47;;;3.27;;
9166;SDS011;4618;48.818;9.088;2024-03-25T03:36:27;4.77;;;3.00;;
9166;SDS011;4618;48.818;9.088;2024-03-25T03:38:54;6.90;;;3.63;;
9166;SDS011;4618;48.818;9.088;2024-03-25T03:41:20;7.03;;;3.60;;
9166;SDS011;4618;48.818;9.088;2024-03-25T03:43:46;4.90;;;3.37;;
9166;SDS011;4618;48.818;9.088;2024-03-25T03:46:12;6.70;;;3.70;;
9166;SDS011;4618;48.818;9.088;2024-03-25T03:48:38;6.03;;;3.47;;
9166;SDS011;4618;48.818;9.088;2024-03-25T03:51:04;6.77;;;3.60;;
9166;SDS011;4618;48.818;9.088;2024-03-25T03:53:31;5.17;;;3.60;;
9166;SDS011;4618;48.818;9.088;2024-03-25T03:55:59;7.57;;;3.70;;
9166;SDS011;4618;48.818;9.088;2024-03-25T03:58:26;7.67;;;3.80;;
9166;SDS011;4618;48.818;9.088;2024-03-25T04:00:52;10.83;;;4.80;;
9166;SDS011;4618;48.818;9.088;2024-03-25T04:03:18;7.70;;;5.10;;
9166;SDS011;4618;48.818;9.088;2024-03-25T04:05:45;13.73;;;5.70;;
9166;SDS011;4618;48.818;9.088;2024-03-25T04:08:11;9.17;;;5.87;;
9166;SDS011;4618;48.818;9.088;2024-03-25T04:10:38;9.23;;;5.00;;
9166;SDS011;4618;48.818;9.088;2024-03-25T04:13:05;7.57;;;4.67;;
9166;SDS011;4618;48.818;9.088;2024-03-25T04:15:43;6.80;;;3.63;;
9166;SDS011;4618;48.818;9.088;2024-03-25T04:18:10;6.70;;;3.63;;
9166;SDS011;4618;48.818;9.088;2024-03-25T04:20:37;6.23;;;3.20;;
9166;SDS011;4618;48.818;9.088;2024-03-25T04:23:03;6.97;;;3.37;;
9166;SDS011;4618;48.818;9.088;2024-03-25T04:25:32;6.50;;;3.50;;
9166;SDS011;4618;48.818;9.088;2024-03-25T04:27:58;4.70;;;3.37;;
9166;SDS011;4618;48.818;9.088;2024-03-25T04:30:25;6.73;;;3.57;;
9166;SDS011;4618;48.818;9.088;2024-03-25T04:32:51;4.23;;;3.13;;
9166;SDS011;4618;48.818;9.088;2024-03-25T04:35:17;5.93;;;3.17;;
9166;SDS011;4618;48.818;9.088;2024-03-25T04:37:43;7.17;;;3.87;;
9166;SDS011;4618;48.818;9.088;2024-03-25T04:40:11;5.50;;;3.07;;
9166;SDS011;4618;48.818;9.088;2024-03-25T04:42:43;5.40;;;3.17;;
9166;SDS011;4618;48.818;9.088;2024-03-25T04:45:09;6.60;;;3.33;;
9166;SDS011;4618;48.818;9.088;2024-03-25T04:47:37;4.63;;;2.70;;
9166;SDS011;4618;48.818;9.088;2024-03-25T04:50:03;5.23;;;3.20;;
9166;SDS011;4618;48.818;9.088;2024-03-25T04:52:30;5.47;;;3.20;;
9166;SDS011;4618;48.818;9.088;2024-03-25T04:55:03;6.03;;;3.10;;
9166;SDS011;4618;48.818;9.088;2024-03-25T04:57:37;4.10;;;3.20;;
9166;SDS011;4618;48.818;9.088;2024-03-25T05:00:10;4.90;;;2.70;;
9166;SDS011;4618;48.818;9.088;2024-03-25T05:02:37;4.50;;;3.20;;
9166;SDS011;4618;48.818;9.088;2024-03-25T05:05:03;5.10;;;3.00;;
9166;SDS011;4618;48.818;9.088;2024-03-25T05:07:30;6.83;;;3.10;;
9166;SDS011;4618;48.818;9.088;2024-03-25T05:09:56;7.37;;;3.17;;
9166;SDS011;4618;48.818;9.088;2024-03-25T05:12:25;4.80;;;3.20;;
9166;SDS011;4618;48.818;9.088;2024-03-25T05:14:55;5.93;;;3.10;;
9166;SDS011;4618;48.818;9.088;2024-03-25T05:17:24;6.67;;;3.17;;
9166;SDS011;4618;48.818;9.088;2024-03-25T05:19:50;6.77;;;3.53;;
9166;SDS011;4618;48.818;9.088;2024-03-25T05:22:16;5.90;;;3.40;;
9166;SDS011;4618;48.818;9.088;2024-03-25T05:24:42;5.63;;;3.73;;
9166;SDS011;4618;48.818;9.088;2024-03-25T05:27:11;4.47;;;3.33;;
9166;SDS011;4618;48.818;9.088;2024-03-25T05:29:37;6.30;;;3.43;;
9166;SDS011;4618;48.818;9.088;2024-03-25T05:32:12;5.60;;;3.83;;
9166;SDS011;4618;48.818;9.088;2024-03-25T05:34:46;7.90;;;3.90;;
9166;SDS011;4618;48.818;9.088;2024-03-25T05:37:16;7.17;;;3.33;;
9166;SDS011;4618;48.818;9.088;2024-03-25T05:39:42;6.40;;;3.47;;
9166;SDS011;4618;48.818;9.088;2024-03-25T05:42:08;7.63;;;3.37;;
9166;SDS011;4618;48.818;9.088;2024-03-25T05:44:34;7.40;;;3.30;;
9166;SDS011;4618;48.818;9.088;2024-03-25T05:47:00;4.53;;;3.07;;
9166;SDS011;4618;48.818;9.088;2024-03-25T05:49:27;7.90;;;4.00;;
9166;SDS011;4618;48.818;9.088;2024-03-25T05:52:02;4.47;;;3.23;;
9166;SDS011;4618;48.818;9.088;2024-03-25T05:54:31;6.70;;;3.40;;
9166;SDS011;4618;48.818;9.088;2024-03-25T05:56:57;4.37;;;3.17;;
9166;SDS011;4618;48.818;9.088;2024-03-25T05:59:23;5.83;;;3.60;;
9166;SDS011;4618;48.818;9.088;2024-03-25T06:01:49;5.43;;;3.47;;
9166;SDS011;4618;48.818;9.088;2024-03-25T06:04:15;4.83;;;3.37;;
9166;SDS011;4618;48.818;9.088;2024-03-25T06:06:44;8.73;;;3.67;;
9166;SDS011;4618;48.818;9.088;2024-03-25T06:09:10;6.30;;;2.73;;
9166;SDS011;4618;48.818;9.088;2024-03-25T06:11:37;6.93;;;3.67;;
9166;SDS011;4618;48.818;9.088;2024-03-25T06:14:03;5.27;;;3.70;;
9166;SDS011;4618;48.818;9.088;2024-03-25T06:16:31;5.10;;;2.93;;
9166;SDS011;4618;48.818;9.088;2024-03-25T06:18:57;8.10;;;3.23;;
9166;SDS011;4618;48.818;9.088;2024-03-25T06:21:23;8.57;;;4.17;;
9166;SDS011;4618;48.818;9.088;2024-03-25T06:23:49;4.87;;;3.33;;
9166;SDS011;4618;48.818;9.088;2024-03-25T06:26:15;6.00;;;3.27;;
9166;SDS011;4618;48.818;9.088;2024-03-25T06:28:42;6.10;;;3.10;;
9166;SDS011;4618;48.818;9.088;2024-03-25T06:31:10;4.17;;;3.47;;
9166;SDS011;4618;48.818;9.088;2024-03-25T06:33:55;5.47;;;3.00;;
9166;SDS011;4618;48.818;9.088;2024-03-25T06:36:42;10.27;;;3.57;;
9166;SDS011;4618;48.818;9.088;2024-03-25T06:39:08;6.83;;;3.23;;
9166;SDS011;4618;48.818;9.088;2024-03-25T06:41:34;9.43;;;3.47;;
9166;SDS011;4618;48.818;9.088;2024-03-25T06:44:00;5.60;;;3.50;;
9166;SDS011;4618;48.818;9.088;2024-03-25T06:46:27;5.70;;;3.50;;
9166;SDS011;4618;48.818;9.088;2024-03-25T06:48:53;6.63;;;3.37;;
9166;SDS011;4618;48.818;9.088;2024-03-25T06:51:19;5.07;;;3.50;;
9166;SDS011;4618;48.818;9.088;2024-03-25T06:53:48;5.17;;;3.20;;
9166;SDS011;4618;48.818;9.088;2024-03-25T06:56:14;8.03;;;3.70;;
9166;SDS011;4618;48.818;9.088;2024-03-25T06:58:40;4.60;;;3.17;;
9166;SDS011;4618;48.818;9.088;2024-03-25T07:01:07;4.67;;;3.10;;
9166;SDS011;4618;48.818;9.088;2024-03-25T07:03:33;8.73;;;3.37;;
9166;SDS011;4618;48.818;9.088;2024-03-25T07:06:00;4.90;;;3.00;;
9166;SDS011;4618;48.818;9.088;2024-03-25T07:08:30;5.17;;;3.57;;
9166;SDS011;4618;48.818;9.088;2024-03-25T07:10:56;6.83;;;3.17;;
9166;SDS011;4618;48.818;9.088;2024-03-25T07:13:22;3.83;;;2.83;;
9166;SDS011;4618;48.818;9.088;2024-03-25T07:15:48;6.80;;;3.13;;
9166;SDS011;4618;48.818;9.088;2024-03-25T07:18:14;5.87;;;2.90;;
9166;SDS011;4618;48.818;9.088;2024-03-25T07:20:40;6.70;;;3.10;;
9166;SDS011;4618;48.818;9.088;2024-03-25T07:23:07;4.23;;;2.87;;
9166;SDS011;4618;48.818;9.088;2024-03-25T07:25:33;4.70;;;2.90;;
9166;SDS011;4618;48.818;9.088;2024-03-25T07:27:59;6.93;;;3.47;;
9166;SDS011;4618;48.818;9.088;2024-03-25T07:30:25;6.90;;;3.43;;
9166;SDS011;4618;48.818;9.088;2024-03-25T07:32:54;4.37;;;3.03;;
9166;SDS011;4618;48.818;9.088;2024-03-25T07:35:21;4.00;;;2.87;;
9166;SDS011;4618;48.818;9.088;2024-03-25T07:37:47;4.80;;;3.10;;
9166;SDS011;4618;48.818;9.088;2024-03-25T07:40:16;4.13;;;2.70;;
9166;SDS011;4618;48.818;9.088;2024-03-25T07:42:42;6.27;;;3.23;;
9166;SDS011;4618;48.818;9.088;2024-03-25T07:45:08;6.50;;;3.00;;
9166;SDS011;4618;48.818;9.088;2024-03-25T07:47:34;4.00;;;2.97;;
9166;SDS011;4618;48.818;9.088;2024-03-25T07:50:01;4.87;;;3.00;;
9166;SDS011;4618;48.818;9.088;2024-03-25T07:52:27;7.13;;;3.10;;
9166;SDS011;4618;48.818;9.088;2024-03-25T07:54:53;6.10;;;2.77;;
9166;SDS011;4618;48.818;9.088;2024-03-25T07:57:19;4.63;;;2.50;;
9166;SDS011;4618;48.818;9.088;2024-03-25T07:59:46;5.47;;;2.70;;
9166;SDS011;4618;48.818;9.088;2024-03-25T08:02:12;4.70;;;2.90;;
9166;SDS011;4618;48.818;9.088;2024-03-25T08:04:38;5.03;;;2.60;;
9166;SDS011;4618;48.818;9.088;2024-03-25T08:07:04;5.23;;;2.83;;
9166;SDS011;4618;48.818;9.088;2024-03-25T08:09:30;3.63;;;2.50;;
9166;SDS011;4618;48.818;9.088;2024-03-25T08:11:56;7.10;;;2.43;;
9166;SDS011;4618;48.818;9.088;2024-03-25T08:14:22;3.60;;;2.03;;
9166;SDS011;4618;48.818;9.088;2024-03-25T08:16:49;3.43;;;1.90;;
9166;SDS011;4618;48.818;9.088;2024-03-25T08:19:15;3.43;;;2.23;;
9166;SDS011;4618;48.818;9.088;2024-03-25T08:21:41;5.30;;;2.03;;
9166;SDS011;4618;48.818;9.088;2024-03-25T08:24:07;3.73;;;1.90;;
9166;SDS011;4618;48.818;9.088;2024-03-25T08:26:33;4.93;;;2.10;;
9166;SDS011;4618;48.818;9.088;2024-03-25T08:28:59;3.87;;;2.20;;
9166;SDS011;4618;48.818;9.088;2024-03-25T08:31:25;4.93;;;1.80;;
9166;SDS011;4618;48.818;9.088;2024-03-25T08:33:51;3.90;;;1.40;;
9166;SDS011;4618;48.818;9.088;2024-03-25T08:36:17;3.37;;;1.50;;
9166;SDS011;4618;48.818;9.088;2024-03-25T08:38:46;1.90;;;1.17;;
9166;SDS011;4618;48.818;9.088;2024-03-25T08:41:12;2.73;;;1.30;;
9166;SDS011;4618;48.818;9.088;2024-03-25T08:43:40;2.90;;;1.50;;
9166;SDS011;4618;48.818;9.088;2024-03-25T08:46:08;3.07;;;1.40;;
9166;SDS011;4618;48.818;9.088;2024-03-25T08:48:52;3.53;;;1.60;;
9166;SDS011;4618;48.818;9.088;2024-03-25T08:51:18;3.47;;;1.63;;
9166;SDS011;4618;48.818;9.088;2024-03-25T08:53:44;2.97;;;1.30;;
9166;SDS011;4618;48.818;9.088;2024-03-25T08:56:11;2.67;;;1.27;;
9166;SDS011;4618;48.818;9.088;2024-03-25T08:58:37;5.17;;;1.40;;
9166;SDS011;4618;48.818;9.088;2024-03-25T09:01:03;2.17;;;1.03;;
9166;SDS011;4618;48.818;9.088;2024-03-25T09:03:29;3.57;;;1.10;;
9166;SDS011;4618;48.818;9.088;2024-03-25T09:06:02;4.63;;;1.30;;
9166;SDS011;4618;48.818;9.088;2024-03-25T09:08:30;1.97;;;1.00;;
9166;SDS011;4618;48.818;9.088;2024-03-25T09:11:17;2.93;;;1.30;;
9166;SDS011;4618;48.818;9.088;2024-03-25T09:13:49;1.83;;;1.17;;
9166;SDS011;4618;48.818;9.088;2024-03-25T09:16:16;3.30;;;0.93;;
9166;SDS011;4618;48.818;9.088;2024-03-25T09:18:43;4.30;;;1.07;;
9166;SDS011;4618;48.818;9.088;2024-03-25T09:21:12;3.60;;;1.00;;
9166;SDS011;4618;48.818;9.088;2024-03-25T09:23:42;2.93;;;1.30;;
9166;SDS011;4618;48.818;9.088;2024-03-25T09:26:08;2.13;;;1.13;;
9166;SDS011;4618;48.818;9.088;2024-03-25T09:28:38;3.67;;;1.33;;
9166;SDS011;4618;48.818;9.088;2024-03-25T09:31:21;2.37;;;0.93;;
9166;SDS011;4618;48.818;9.088;2024-03-25T09:39:28;2.97;;;1.07;;
9166;SDS011;4618;48.818;9.088;2024-03-25T09:41:57;2.20;;;0.97;;
9166;SDS011;4618;48.818;9.088;2024-03-25T09:50:07;1.60;;;0.90;;
9166;SDS011;4618;48.818;9.088;2024-03-25T09:52:48;2.47;;;1.20;;
9166;SDS011;4618;48.818;9.088;2024-03-25T09:55:39;3.67;;;1.10;;
9166;SDS011;4618;48.818;9.088;2024-03-25T09:58:28;2.13;;;1.10;;
9166;SDS011;4618;48.818;9.088;2024-03-25T10:01:10;2.67;;;1.20;;
9166;SDS011;4618;48.818;9.088;2024-03-25T10:06:31;3.10;;;1.08;;
9166;SDS011;4618;48.818;9.088;2024-03-25T10:09:10;2.58;;;1.10;;
9166;SDS011;4618;48.818;9.088;2024-03-25T10:12:03;2.17;;;1.10;;
9166;SDS011;4618;48.818;9.088;2024-03-25T10:14:39;1.77;;;1.10;;
9166;SDS011;4618;48.818;9.088;2024-03-25T10:17:05;1.92;;;1.02;;
9166;SDS011;4618;48.818;9.088;2024-03-25T10:19:38;4.10;;;1.20;;
9166;SDS011;4618;48.818;9.088;2024-03-25T10:22:17;3.53;;;1.20;;
9166;SDS011;4618;48.818;9.088;2024-03-25T10:24:46;1.52;;;1.02;;
9166;SDS011;4618;48.818;9.088;2024-03-25T10:27:19;1.63;;;1.15;;
9166;SDS011;4618;48.818;9.088;2024-03-25T10:29:53;1.95;;;1.00;;
9166;SDS011;4618;48.818;9.088;2024-03-25T10:32:25;1.80;;;0.82;;
9166;SDS011;4618;48.818;9.088;2024-03-25T10:34:54;3.50;;;1.35;;
9166;SDS011;4618;48.818;9.088;2024-03-25T10:37:20;2.70;;;1.10;;
9166;SDS011;4618;48.818;9.088;2024-03-25T10:39:49;1.90;;;1.10;;
9166;SDS011;4618;48.818;9.088;2024-03-25T10:42:22;4.57;;;1.92;;
9166;SDS011;4618;48.818;9.088;2024-03-25T10:45:15;2.05;;;1.13;;
9166;SDS011;4618;48.818;9.088;2024-03-25T10:47:40;1.88;;;1.00;;
9166;SDS011;4618;48.818;9.088;2024-03-25T10:50:08;1.50;;;0.90;;
9166;SDS011;4618;48.818;9.088;2024-03-25T10:52:36;3.13;;;1.40;;
9166;SDS011;4618;48.818;9.088;2024-03-25T10:55:03;1.70;;;1.23;;
9166;SDS011;4618;48.818;9.088;2024-03-25T10:57:29;1.60;;;1.20;;
9166;SDS011;4618;48.818;9.088;2024-03-25T10:59:56;1.73;;;1.10;;
9166;SDS011;4618;48.818;9.088;2024-03-25T11:02:22;2.07;;;1.40;;
9166;SDS011;4618;48.818;9.088;2024-03-25T11:04:49;2.03;;;1.33;;
9166;SDS011;4618;48.818;9.088;2024-03-25T11:07:16;2.17;;;1.10;;
9166;SDS011;4618;48.818;9.088;2024-03-25T11:09:43;2.30;;;1.23;;
9166;SDS011;4618;48.818;9.088;2024-03-25T11:12:12;1.97;;;0.90;;
9166;SDS011;4618;48.818;9.088;2024-03-25T11:14:38;1.85;;;0.90;;
9166;SDS011;4618;48.818;9.088;2024-03-25T11:17:14;1.92;;;0.93;;
9166;SDS011;4618;48.818;9.088;2024-03-25T11:20:11;1.58;;;1.13;;
9166;SDS011;4618;48.818;9.088;2024-03-25T11:22:52;2.33;;;1.25;;
9166;SDS011;4618;48.818;9.088;2024-03-25T11:25:20;1.83;;;1.20;;
9166;SDS011;4618;48.818;9.088;2024-03-25T11:30:15;2.65;;;1.15;;
9166;SDS011;4618;48.818;9.088;2024-03-25T11:32:54;2.50;;;1.30;;
9166;SDS011;4618;48.818;9.088;2024-03-25T11:35:27;2.28;;;1.30;;
9166;SDS011;4618;48.818;9.088;2024-03-25T11:37:53;2.13;;;1.08;;
9166;SDS011;4618;48.818;9.088;2024-03-25T11:40:20;1.50;;;1.00;;
9166;SDS011;4618;48.818;9.088;2024-03-25T11:52:42;3.05;;;1.10;;
9166;SDS011;4618;48.818;9.088;2024-03-25T11:55:16;2.78;;;1.17;;
9166;SDS011;4618;48.818;9.088;2024-03-25T11:57:54;3.40;;;1.50;;
9166;SDS011;4618;48.818;9.088;2024-03-25T12:00:26;2.55;;;1.13;;
9166;SDS011;4618;48.818;9.088;2024-03-25T12:03:03;1.42;;;1.00;;
9166;SDS011;4618;48.818;9.088;2024-03-25T12:05:29;6.70;;;1.48;;
9166;SDS011;4618;48.818;9.088;2024-03-25T12:07:55;1.75;;;1.10;;
9166;SDS011;4618;48.818;9.088;2024-03-25T12:15:38;2.17;;;1.10;;
9166;SDS011;4618;48.818;9.088;2024-03-25T12:18:03;3.40;;;1.33;;
9166;SDS011;4618;48.818;9.088;2024-03-25T12:20:30;2.60;;;1.10;;
9166;SDS011;4618;48.818;9.088;2024-03-25T12:22:55;2.00;;;1.33;;
9166;SDS011;4618;48.818;9.088;2024-03-25T12:25:24;1.93;;;1.23;;
9166;SDS011;4618;48.818;9.088;2024-03-25T12:27:50;4.07;;;1.47;;
9166;SDS011;4618;48.818;9.088;2024-03-25T12:30:19;3.63;;;1.33;;
9166;SDS011;4618;48.818;9.088;2024-03-25T12:32:57;2.30;;;1.45;;
9166;SDS011;4618;48.818;9.088;2024-03-25T12:35:23;0.90;;;0.90;;
9166;SDS011;4618;48.818;9.088;2024-03-25T12:37:50;2.40;;;1.27;;
9166;SDS011;4618;48.818;9.088;2024-03-25T12:40:25;3.10;;;1.70;;
9166;SDS011;4618;48.818;9.088;2024-03-25T12:42:52;2.67;;;1.50;;
9166;SDS011;4618;48.818;9.088;2024-03-25T12:45:21;3.60;;;1.67;;
9166;SDS011;4618;48.818;9.088;2024-03-25T12:47:50;2.37;;;1.60;;
9166;SDS011;4618;48.818;9.088;2024-03-25T12:50:16;3.40;;;1.30;;
9166;SDS011;4618;48.818;9.088;2024-03-25T12:52:44;2.67;;;1.50;;
9166;SDS011;4618;48.818;9.088;2024-03-25T12:55:10;2.03;;;1.50;;
9166;SDS011;4618;48.818;9.088;2024-03-25T12:57:36;2.08;;;1.20;;
9166;SDS011;4618;48.818;9.088;2024-03-25T13:00:02;3.50;;;1.30;;
9166;SDS011;4618;48.818;9.088;2024-03-25T13:02:30;1.80;;;1.25;;
9166;SDS011;4618;48.818;9.088;2024-03-25T13:04:56;2.03;;;1.23;;
9166;SDS011;4618;48.818;9.088;2024-03-25T13:07:22;3.40;;;1.30;;
9166;SDS011;4618;48.818;9.088;2024-03-25T13:09:49;2.60;;;1.10;;
9166;SDS011;4618;48.818;9.088;2024-03-25T13:12:15;1.95;;;1.40;;
9166;SDS011;4618;48.818;9.088;2024-03-25T13:14:41;2.63;;;1.42;;
9166;SDS011;4618;48.818;9.088;2024-03-25T13:17:07;3.42;;;1.35;;
9166;SDS011;4618;48.818;9.088;2024-03-25T13:19:33;2.22;;;1.30;;
9166;SDS011;4618;48.818;9.088;2024-03-25T13:21:59;3.35;;;1.58;;
9166;SDS011;4618;48.818;9.088;2024-03-25T13:24:28;6.33;;;1.40;;
9166;SDS011;4618;48.818;9.088;2024-03-25T13:26:55;2.07;;;1.50;;
9166;SDS011;4618;48.818;9.088;2024-03-25T13:29:21;1.60;;;1.50;;
9166;SDS011;4618;48.818;9.088;2024-03-25T13:31:47;3.70;;;1.60;;
9166;SDS011;4618;48.818;9.088;2024-03-25T13:34:13;2.00;;;1.37;;
9166;SDS011;4618;48.818;9.088;2024-03-25T13:36:40;3.67;;;1.20;;
9166;SDS011;4618;48.818;9.088;2024-03-25T13:39:06;3.37;;;1.30;;
9166;SDS011;4618;48.818;9.088;2024-03-25T13:41:33;2.10;;;1.40;;
9166;SDS011;4618;48.818;9.088;2024-03-25T13:44:00;1.92;;;1.13;;
9166;SDS011;4618;48.818;9.088;2024-03-25T13:46:26;3.00;;;1.30;;
9166;SDS011;4618;48.818;9.088;2024-03-25T13:48:52;3.25;;;1.15;;
9166;SDS011;4618;48.818;9.088;2024-03-25T13:51:18;2.03;;;1.10;;
9166;SDS011;4618;48.818;9.088;2024-03-25T13:53:44;1.50;;;1.10;;
9166;SDS011;4618;48.818;9.088;2024-03-25T13:56:11;2.30;;;1.20;;
9166;SDS011;4618;48.818;9.088;2024-03-25T13:58:37;2.92;;;1.25;;
9166;SDS011;4618;48.818;9.088;2024-03-25T14:01:04;1.60;;;1.20;;
9166;SDS011;4618;48.818;9.088;2024-03-25T14:03:31;1.73;;;1.35;;
9166;SDS011;4618;48.818;9.088;2024-03-25T14:05:57;1.42;;;1.20;;
9166;SDS011;4618;48.818;9.088;2024-03-25T14:08:23;1.60;;;1.00;;
9166;SDS011;4618;48.818;9.088;2024-03-25T14:11:01;2.60;;;1.00;;
9166;SDS011;4618;48.818;9.088;2024-03-25T14:13:28;3.17;;;1.52;;
9166;SDS011;4618;48.818;9.088;2024-03-25T14:15:54;4.75;;;1.42;;
9166;SDS011;4618;48.818;9.088;2024-03-25T14:18:21;2.75;;;1.33;;
9166;SDS011;4618;48.818;9.088;2024-03-25T14:20:47;1.63;;;1.00;;
9166;SDS011;4618;48.818;9.088;2024-03-25T14:23:14;1.70;;;1.20;;
9166;SDS011;4618;48.818;9.088;2024-03-25T14:25:40;1.27;;;1.17;;
9166;SDS011;4618;48.818;9.088;2024-03-25T14:28:06;2.05;;;1.27;;
9166;SDS011;4618;48.818;9.088;2024-03-25T14:30:33;2.85;;;1.30;;
9166;SDS011;4618;48.818;9.088;2024-03-25T14:32:59;2.47;;;1.40;;
9166;SDS011;4618;48.818;9.088;2024-03-25T14:35:25;2.08;;;1.30;;
9166;SDS011;4618;48.818;9.088;2024-03-25T14:37:51;4.35;;;1.23;;
9166;SDS011;4618;48.818;9.088;2024-03-25T14:40:17;5.07;;;4.15;;
9166;SDS011;4618;48.818;9.088;2024-03-25T14:42:43;1.95;;;1.17;;
9166;SDS011;4618;48.818;9.088;2024-03-25T14:45:09;2.35;;;1.20;;
9166;SDS011;4618;48.818;9.088;2024-03-25T14:47:35;1.95;;;1.25;;
9166;SDS011;4618;48.818;9.088;2024-03-25T14:50:02;1.40;;;1.00;;
9166;SDS011;4618;48.818;9.088;2024-03-25T14:52:30;2.78;;;1.20;;
9166;SDS011;4618;48.818;9.088;2024-03-25T14:54:59;1.13;;;1.00;;
9166;SDS011;4618;48.818;9.088;2024-03-25T14:57:27;2.03;;;1.30;;
9166;SDS011;4618;48.818;9.088;2024-03-25T14:59:56;1.33;;;1.15;;
9166;SDS011;4618;48.818;9.088;2024-03-25T15:02:25;3.05;;;1.13;;
9166;SDS011;4618;48.818;9.088;2024-03-25T15:04:52;2.67;;;1.30;;
9166;SDS011;4618;48.818;9.088;2024-03-25T15:07:21;3.25;;;1.25;;
9166;SDS011;4618;48.818;9.088;2024-03-25T15:09:50;2.47;;;1.02;;
9166;SDS011;4618;48.818;9.088;2024-03-25T15:12:25;2.65;;;1.20;;
9166;SDS011;4618;48.818;9.088;2024-03-25T15:15:02;1.25;;;1.00;;
9166;SDS011;4618;48.818;9.088;2024-03-25T15:17:35;1.55;;;0.98;;
9166;SDS011;4618;48.818;9.088;2024-03-25T15:20:01;1.87;;;1.10;;
9166;SDS011;4618;48.818;9.088;2024-03-25T15:22:31;1.77;;;1.30;;
9166;SDS011;4618;48.818;9.088;2024-03-25T15:24:58;1.53;;;1.10;;
9166;SDS011;4618;48.818;9.088;2024-03-25T15:27:36;1.20;;;1.10;;
9166;SDS011;4618;48.818;9.088;2024-03-25T15:30:15;1.73;;;0.93;;
9166;SDS011;4618;48.818;9.088;2024-03-25T15:35:55;1.17;;;1.00;;
9166;SDS011;4618;48.818;9.088;2024-03-25T15:38:22;1.57;;;1.30;;
9166;SDS011;4618;48.818;9.088;2024-03-25T15:40:54;1.27;;;1.00;;
9166;SDS011;4618;48.818;9.088;2024-03-25T15:43:58;1.97;;;1.10;;
9166;SDS011;4618;48.818;9.088;2024-03-25T15:46:37;1.70;;;1.13;;
9166;SDS011;4618;48.818;9.088;2024-03-25T15:49:13;3.13;;;1.10;;
9166;SDS011;4618;48.818;9.088;2024-03-25T15:51:50;2.90;;;1.20;;
9166;SDS011;4618;48.818;9.088;2024-03-25T15:54:17;1.37;;;1.07;;
9166;SDS011;4618;48.818;9.088;2024-03-25T15:56:44;1.33;;;1.10;;
9166;SDS011;4618;48.818;9.088;2024-03-25T15:59:13;1.50;;;1.30;;
9166;SDS011;4618;48.818;9.088;2024-03-25T16:01:40;1.63;;;0.77;;